Watts Bar Observed Data For Previous 48 Hours

Caption
Day and Hour Reservoir Elevation (behind dam)* Tailwater Elevation (below dam)* Average Hourly Discharge*
9/20/2018 2 AM EDT 740.37 681.62 10,434
9/20/2018 3 AM EDT 740.45 681.52 5,261
9/20/2018 4 AM EDT 740.47 681.55 5,067
9/20/2018 5 AM EDT 740.47 681.63 5,099
9/20/2018 6 AM EDT 740.48 681.70 5,032
9/20/2018 7 AM EDT 740.53 681.91 9,527
9/20/2018 8 AM EDT 740.58 682.43 18,729
9/20/2018 9 AM EDT 740.59 682.73 24,495
9/20/2018 10 AM EDT 740.50 683.95 46,388
9/20/2018 11 AM EDT 740.47 683.98 47,126
9/20/2018 12 PM EDT 740.49 683.97 47,125
9/20/2018 1 PM EDT 740.50 683.92 47,168
9/20/2018 2 PM EDT 740.50 683.83 47,186
9/20/2018 3 PM EDT 740.42 683.80 47,103
9/20/2018 4 PM EDT 740.35 683.83 46,961
9/20/2018 5 PM EDT 740.31 683.80 47,074
9/20/2018 6 PM EDT 740.28 683.85 47,091
9/20/2018 7 PM EDT 740.25 683.84 47,051
9/20/2018 8 PM EDT 740.22 683.91 47,067
9/20/2018 9 PM EDT 740.20 683.89 47,054
9/20/2018 10 PM EDT 740.17 683.91 47,085
9/20/2018 11 PM EDT 740.13 683.87 47,064
9/21/2018 12 AM EDT 740.17 682.58 26,042
9/21/2018 1 AM EDT 740.22 682.40 25,118
9/21/2018 2 AM EDT 740.29 681.42 10,626
9/21/2018 3 AM EDT 740.35 681.46 10,151
9/21/2018 4 AM EDT 740.32 681.50 10,153
9/21/2018 5 AM EDT 740.30 681.73 10,132
9/21/2018 6 AM EDT 740.32 681.95 10,100
9/21/2018 7 AM EDT 740.37 681.93 10,303
9/21/2018 8 AM EDT 740.43 682.33 19,992
9/21/2018 9 AM EDT 740.44 682.55 25,028
9/21/2018 10 AM EDT 740.31 683.20 27,601
9/21/2018 11 AM EDT 740.27 683.72 46,711
9/21/2018 12 PM EDT 740.34 683.79 46,887
9/21/2018 1 PM EDT 740.34 683.78 47,093
9/21/2018 2 PM EDT 740.31 683.78 47,278
9/21/2018 3 PM EDT 740.28 683.77 47,319
9/21/2018 4 PM EDT 740.24 683.75 47,343
9/21/2018 5 PM EDT 740.20 683.75 47,362
9/21/2018 6 PM EDT 740.17 683.80 47,306
9/21/2018 7 PM EDT 740.14 683.78 47,265
9/21/2018 8 PM EDT 740.12 683.78 47,276
9/21/2018 9 PM EDT 740.16 682.42 25,994
9/21/2018 10 PM EDT 740.21 682.26 25,086
9/21/2018 11 PM EDT 740.24 681.83 20,412
9/22/2018 12 AM EDT 740.32 681.24 17,440
9/22/2018 1 AM EDT 740.33 681.22 10,157
9/22/2018 2 AM EDT 740.36 681.31 10,174
9/22/2018 3 AM EDT 740.45 681.52 10,187
9/22/2018 4 AM EDT 740.48 681.79 10,148
9/22/2018 5 AM EDT 740.48 681.76 10,167
9/22/2018 6 AM EDT 740.50 681.67 10,142

Elevations are in feet above sea level. Discharges are in cubic feet per second and are reported at the end of the hour.